world map with AMS marked

AMS - Airport

This information may not be accurate or current and is not valid for navigation or flight planning. No warranty of fitness for any purpose is made or implied.

flag of Noord-Holland (North Holland)flag of Netherlands

Donate via PayPal

Additional information is available on the NEW Great Circle Mapper

Location
City:  Amsterdam, Noord-Holland (North Holland), Netherlands
Name:Schiphol
ICAO / IATA:EHAM / AMS

Details
Type:Airport (Aerodrome, Airfield)
Use:Public/Civil
Latitude:52°18'31"N (52.308613)
Longitude:4°45'50"E (4.763889)
Datum:WGS 1984
Elevation:-11 ft (-2 m)
Runways:6
Longest:12467 × 198 ft (3800 × 60.5 m)

Time
Timezone:UTC+1 (DST+4)
Local Time:

Weather
METAR:EHAM  262055Z 05009KT 020V080 CAVOK 22/14 Q1020 NOSIG
TAF:EHAM  261048Z 2612/2718 05010KT CAVOK= TAF EHBK 261059Z 2612/2718 10009KT CAVOK PROB40 TEMPO 2710/2718 VRB15G25KT 4000 SHRA TSRA SCT040CB

Related Locations
Nearby:
Farthest:CHT: 11840 mi / 19055 km
Waitangi [Tuuta], CIT, NZ

Find:

   beyond  
but within

Other Information
Maps:
Links:
Sources:

  

Airport Diagram

Airport diagram for AMS

Airport diagram (OBSOLETE) from NGA

 


Great Circle Mapper   Great Circle Mapper
Great Circle Mapper FAQ   Great Circle Mapper FAQ
  Karl's Home Page
KLSē   KLSē Home
   GC on Facebook
Airlines of the World   Airlines of the World
Donate via PayPal


Copyright © 2004-2017, Karl L. Swartz. All rights reserved.
All trademarks mentioned herein belong to their respective owners.

Please see credits for attribution and copyright information.

Karl Swartz <karl@kls2.com>
  Powered by FreeBSD
Valid HTML 4.01!
Labeled with ICRA
hCard Microformat
Geo Microformat